sensor_id;sensor_type;location;lat;lon;timestamp;pressure;altitude;pressure_sealevel;temperature;humidity
17873;BME280;36318;42.620;23.338;2023-03-13T00:02:04;93155.53;;;0.19;100.00
17873;BME280;36318;42.620;23.338;2023-03-13T00:04:30;93166.69;;;0.16;100.00
17873;BME280;36318;42.620;23.338;2023-03-13T00:06:57;93159.84;;;0.17;100.00
17873;BME280;36318;42.620;23.338;2023-03-13T00:09:23;93159.06;;;0.15;100.00
17873;BME280;36318;42.620;23.338;2023-03-13T00:11:51;93154.84;;;0.14;100.00
17873;BME280;36318;42.620;23.338;2023-03-13T00:14:19;93153.44;;;0.07;100.00
17873;BME280;36318;42.620;23.338;2023-03-13T00:16:45;93154.31;;;0.06;100.00
17873;BME280;36318;42.620;23.338;2023-03-13T00:19:13;93155.13;;;0.08;100.00
17873;BME280;36318;42.620;23.338;2023-03-13T00:21:40;93160.34;;;0.05;100.00
17873;BME280;36318;42.620;23.338;2023-03-13T00:24:08;93164.59;;;0.04;100.00
17873;BME280;36318;42.620;23.338;2023-03-13T00:26:35;93159.75;;;-0.02;100.00
17873;BME280;36318;42.620;23.338;2023-03-13T00:29:01;93165.16;;;-0.10;100.00
17873;BME280;36318;42.620;23.338;2023-03-13T00:31:30;93162.59;;;-0.10;100.00
17873;BME280;36318;42.620;23.338;2023-03-13T00:33:57;93157.56;;;-0.11;100.00
17873;BME280;36318;42.620;23.338;2023-03-13T00:36:25;93160.03;;;-0.10;100.00
17873;BME280;36318;42.620;23.338;2023-03-13T00:38:52;93168.53;;;-0.09;100.00
17873;BME280;36318;42.620;23.338;2023-03-13T00:41:20;93157.56;;;-0.11;100.00
17873;BME280;36318;42.620;23.338;2023-03-13T00:43:47;93169.59;;;-0.15;100.00
17873;BME280;36318;42.620;23.338;2023-03-13T00:46:15;93172.16;;;-0.15;100.00
17873;BME280;36318;42.620;23.338;2023-03-13T00:48:43;93174.06;;;-0.20;100.00
17873;BME280;36318;42.620;23.338;2023-03-13T00:51:09;93177.56;;;-0.22;100.00
17873;BME280;36318;42.620;23.338;2023-03-13T00:53:36;93160.53;;;-0.22;100.00
17873;BME280;36318;42.620;23.338;2023-03-13T00:56:03;93160.28;;;-0.16;100.00
17873;BME280;36318;42.620;23.338;2023-03-13T00:58:32;93166.75;;;-0.07;100.00
17873;BME280;36318;42.620;23.338;2023-03-13T01:01:05;93162.53;;;-0.08;100.00
17873;BME280;36318;42.620;23.338;2023-03-13T01:03:31;93161.19;;;-0.17;100.00
17873;BME280;36318;42.620;23.338;2023-03-13T01:06:00;93162.91;;;-0.17;100.00
17873;BME280;36318;42.620;23.338;2023-03-13T01:08:28;93158.09;;;-0.25;100.00
17873;BME280;36318;42.620;23.338;2023-03-13T01:10:58;93169.47;;;-0.33;100.00
17873;BME280;36318;42.620;23.338;2023-03-13T01:13:25;93173.84;;;-0.37;100.00
17873;BME280;36318;42.620;23.338;2023-03-13T01:15:51;93164.59;;;-0.39;100.00
17873;BME280;36318;42.620;23.338;2023-03-13T01:18:18;93162.41;;;-0.48;100.00
17873;BME280;36318;42.620;23.338;2023-03-13T01:20:44;93165.09;;;-0.51;100.00
17873;BME280;36318;42.620;23.338;2023-03-13T01:23:12;93152.19;;;-0.48;100.00
17873;BME280;36318;42.620;23.338;2023-03-13T01:25:40;93157.31;;;-0.48;100.00
17873;BME280;36318;42.620;23.338;2023-03-13T01:28:06;93160.56;;;-0.45;100.00
17873;BME280;36318;42.620;23.338;2023-03-13T01:30:33;93157.31;;;-0.48;100.00
17873;BME280;36318;42.620;23.338;2023-03-13T01:32:59;93168.41;;;-0.49;100.00
17873;BME280;36318;42.620;23.338;2023-03-13T01:35:26;93166.69;;;-0.49;100.00
17873;BME280;36318;42.620;23.338;2023-03-13T01:37:52;93169.28;;;-0.50;100.00
17873;BME280;36318;42.620;23.338;2023-03-13T01:40:20;93174.56;;;-0.55;100.00
17873;BME280;36318;42.620;23.338;2023-03-13T01:42:48;93171.25;;;-0.57;100.00
17873;BME280;36318;42.620;23.338;2023-03-13T01:48:00;93180.72;;;-0.61;100.00
17873;BME280;36318;42.620;23.338;2023-03-13T01:50:26;93179.97;;;-0.64;100.00
17873;BME280;36318;42.620;23.338;2023-03-13T01:52:53;93184.31;;;-0.66;100.00
17873;BME280;36318;42.620;23.338;2023-03-13T01:55:21;93184.31;;;-0.66;100.00
17873;BME280;36318;42.620;23.338;2023-03-13T01:57:48;93179.25;;;-0.68;100.00
17873;BME280;36318;42.620;23.338;2023-03-13T02:00:16;93185.38;;;-0.72;100.00
17873;BME280;36318;42.620;23.338;2023-03-13T02:02:45;93186.41;;;-0.77;100.00
17873;BME280;36318;42.620;23.338;2023-03-13T02:05:14;93180.38;;;-0.75;100.00
17873;BME280;36318;42.620;23.338;2023-03-13T02:07:42;93186.19;;;-0.71;100.00
17873;BME280;36318;42.620;23.338;2023-03-13T02:10:10;93181.81;;;-0.68;100.00
17873;BME280;36318;42.620;23.338;2023-03-13T02:12:39;93177.78;;;-0.73;100.00
17873;BME280;36318;42.620;23.338;2023-03-13T02:15:07;93185.47;;;-0.75;100.00
17873;BME280;36318;42.620;23.338;2023-03-13T02:17:35;93181.31;;;-0.77;100.00
17873;BME280;36318;42.620;23.338;2023-03-13T02:20:04;93189.91;;;-0.80;100.00
17873;BME280;36318;42.620;23.338;2023-03-13T02:22:32;93190.03;;;-0.83;100.00
17873;BME280;36318;42.620;23.338;2023-03-13T02:25:02;93193.50;;;-0.85;100.00
17873;BME280;36318;42.620;23.338;2023-03-13T02:27:33;93194.56;;;-0.91;100.00
17873;BME280;36318;42.620;23.338;2023-03-13T02:30:00;93200.59;;;-0.93;100.00
17873;BME280;36318;42.620;23.338;2023-03-13T02:32:28;93200.38;;;-0.87;100.00
17873;BME280;36318;42.620;23.338;2023-03-13T02:34:56;93211.41;;;-0.87;100.00
17873;BME280;36318;42.620;23.338;2023-03-13T02:37:23;93212.50;;;-0.94;100.00
17873;BME280;36318;42.620;23.338;2023-03-13T02:39:52;93214.19;;;-0.94;100.00
17873;BME280;36318;42.620;23.338;2023-03-13T02:42:20;93216.75;;;-0.94;100.00
17873;BME280;36318;42.620;23.338;2023-03-13T02:44:49;93223.53;;;-0.93;100.00
17873;BME280;36318;42.620;23.338;2023-03-13T02:47:17;93228.81;;;-0.99;100.00
17873;BME280;36318;42.620;23.338;2023-03-13T02:49:44;93233.97;;;-1.01;100.00
17873;BME280;36318;42.620;23.338;2023-03-13T02:52:11;93235.75;;;-1.03;100.00
17873;BME280;36318;42.620;23.338;2023-03-13T02:54:39;93240.78;;;-1.01;100.00
17873;BME280;36318;42.620;23.338;2023-03-13T02:57:06;93240.00;;;-1.03;100.00
17873;BME280;36318;42.620;23.338;2023-03-13T02:59:33;93242.00;;;-1.11;100.00
17873;BME280;36318;42.620;23.338;2023-03-13T03:02:01;93241.91;;;-1.10;100.00
17873;BME280;36318;42.620;23.338;2023-03-13T03:04:28;93243.50;;;-1.06;100.00
17873;BME280;36318;42.620;23.338;2023-03-13T03:06:55;93239.34;;;-1.08;100.00
17873;BME280;36318;42.620;23.338;2023-03-13T03:09:21;93232.50;;;-1.08;100.00
17873;BME280;36318;42.620;23.338;2023-03-13T03:11:48;93236.16;;;-1.15;100.00
17873;BME280;36318;42.620;23.338;2023-03-13T03:14:15;93241.34;;;-1.18;100.00
17873;BME280;36318;42.620;23.338;2023-03-13T03:16:42;93233.69;;;-1.16;100.00
17873;BME280;36318;42.620;23.338;2023-03-13T03:19:10;93238.88;;;-1.19;100.00
17873;BME280;36318;42.620;23.338;2023-03-13T03:21:36;93248.97;;;-1.16;100.00
17873;BME280;36318;42.620;23.338;2023-03-13T03:24:03;93252.16;;;-1.11;100.00
17873;BME280;36318;42.620;23.338;2023-03-13T03:26:30;93258.44;;;-1.22;100.00
17873;BME280;36318;42.620;23.338;2023-03-13T03:28:56;93266.34;;;-1.29;100.00
17873;BME280;36318;42.620;23.338;2023-03-13T03:31:23;93275.59;;;-1.27;100.00
17873;BME280;36318;42.620;23.338;2023-03-13T03:33:50;93263.78;;;-1.29;100.00
17873;BME280;36318;42.620;23.338;2023-03-13T03:36:19;93274.91;;;-1.32;100.00
17873;BME280;36318;42.620;23.338;2023-03-13T03:38:45;93280.84;;;-1.31;100.00
17873;BME280;36318;42.620;23.338;2023-03-13T03:41:13;93281.81;;;-1.35;100.00
17873;BME280;36318;42.620;23.338;2023-03-13T03:43:40;93280.09;;;-1.35;100.00
17873;BME280;36318;42.620;23.338;2023-03-13T03:46:07;93283.53;;;-1.36;100.00
17873;BME280;36318;42.620;23.338;2023-03-13T03:48:34;93287.88;;;-1.39;100.00
17873;BME280;36318;42.620;23.338;2023-03-13T03:51:00;93295.44;;;-1.36;100.00
17873;BME280;36318;42.620;23.338;2023-03-13T03:53:28;93302.03;;;-1.31;100.00
17873;BME280;36318;42.620;23.338;2023-03-13T03:55:56;93304.84;;;-1.38;100.00
17873;BME280;36318;42.620;23.338;2023-03-13T03:58:23;93306.91;;;-1.51;100.00
17873;BME280;36318;42.620;23.338;2023-03-13T04:00:50;93307.91;;;-1.55;100.00
17873;BME280;36318;42.620;23.338;2023-03-13T04:03:16;93304.47;;;-1.54;100.00
17873;BME280;36318;42.620;23.338;2023-03-13T04:05:43;93308.63;;;-1.51;100.00
17873;BME280;36318;42.620;23.338;2023-03-13T04:08:10;93317.91;;;-1.49;100.00
17873;BME280;36318;42.620;23.338;2023-03-13T04:10:37;93320.56;;;-1.53;100.00
17873;BME280;36318;42.620;23.338;2023-03-13T04:13:04;93319.56;;;-1.75;100.00
17873;BME280;36318;42.620;23.338;2023-03-13T04:15:31;93325.31;;;-1.69;100.00
17873;BME280;36318;42.620;23.338;2023-03-13T04:17:57;93335.41;;;-1.67;100.00
17873;BME280;36318;42.620;23.338;2023-03-13T04:20:24;93337.97;;;-1.67;100.00
17873;BME280;36318;42.620;23.338;2023-03-13T04:22:50;93333.72;;;-1.67;100.00
17873;BME280;36318;42.620;23.338;2023-03-13T04:25:17;93337.97;;;-1.67;100.00
17873;BME280;36318;42.620;23.338;2023-03-13T04:27:45;93345.75;;;-1.72;100.00
17873;BME280;36318;42.620;23.338;2023-03-13T04:30:11;93351.00;;;-1.78;100.00
17873;BME280;36318;42.620;23.338;2023-03-13T04:32:38;93346.94;;;-1.84;100.00
17873;BME280;36318;42.620;23.338;2023-03-13T04:35:05;93349.38;;;-1.79;100.00
17873;BME280;36318;42.620;23.338;2023-03-13T04:37:32;93347.78;;;-1.83;100.00
17873;BME280;36318;42.620;23.338;2023-03-13T04:39:58;93352.16;;;-1.88;100.00
17873;BME280;36318;42.620;23.338;2023-03-13T04:42:25;93358.09;;;-1.88;100.00
17873;BME280;36318;42.620;23.338;2023-03-13T04:44:52;93366.66;;;-1.90;100.00
17873;BME280;36318;42.620;23.338;2023-03-13T04:47:19;93372.50;;;-1.88;100.00
17873;BME280;36318;42.620;23.338;2023-03-13T04:49:45;93370.03;;;-1.90;100.00
17873;BME280;36318;42.620;23.338;2023-03-13T04:52:12;93372.44;;;-1.85;100.00
17873;BME280;36318;42.620;23.338;2023-03-13T04:54:39;93379.13;;;-1.83;100.00
17873;BME280;36318;42.620;23.338;2023-03-13T04:57:05;93374.09;;;-1.84;100.00
17873;BME280;36318;42.620;23.338;2023-03-13T04:59:32;93377.56;;;-1.87;100.00
17873;BME280;36318;42.620;23.338;2023-03-13T05:02:00;93379.13;;;-1.83;100.00
17873;BME280;36318;42.620;23.338;2023-03-13T05:04:26;93383.91;;;-1.72;100.00
17873;BME280;36318;42.620;23.338;2023-03-13T05:06:53;93377.75;;;-1.65;100.00
17873;BME280;36318;42.620;23.338;2023-03-13T05:09:19;93379.25;;;-1.58;100.00
17873;BME280;36318;42.620;23.338;2023-03-13T05:11:46;93373.06;;;-1.51;100.00
17873;BME280;36318;42.620;23.338;2023-03-13T05:14:14;93379.66;;;-1.44;100.00
17873;BME280;36318;42.620;23.338;2023-03-13T05:16:41;93380.88;;;-1.29;100.00
17873;BME280;36318;42.620;23.338;2023-03-13T05:19:08;93383.19;;;-1.22;100.00
17873;BME280;36318;42.620;23.338;2023-03-13T05:21:35;93384.78;;;-1.17;100.00
17873;BME280;36318;42.620;23.338;2023-03-13T05:24:01;93394.78;;;-1.11;100.00
17873;BME280;36318;42.620;23.338;2023-03-13T05:26:28;93397.16;;;-1.07;100.00
17873;BME280;36318;42.620;23.338;2023-03-13T05:28:54;93409.53;;;-0.96;100.00
17873;BME280;36318;42.620;23.338;2023-03-13T05:31:21;93414.34;;;-0.87;100.00
17873;BME280;36318;42.620;23.338;2023-03-13T05:33:48;93405.59;;;-0.79;100.00
17873;BME280;36318;42.620;23.338;2023-03-13T05:36:15;93414.69;;;-0.72;100.00
17873;BME280;36318;42.620;23.338;2023-03-13T05:38:42;93412.66;;;-0.62;100.00
17873;BME280;36318;42.620;23.338;2023-03-13T05:41:09;93417.41;;;-0.51;100.00
17873;BME280;36318;42.620;23.338;2023-03-13T05:43:35;93414.50;;;-0.41;100.00
17873;BME280;36318;42.620;23.338;2023-03-13T05:46:02;93424.25;;;-0.27;100.00
17873;BME280;36318;42.620;23.338;2023-03-13T05:48:28;93417.59;;;-0.08;100.00
17873;BME280;36318;42.620;23.338;2023-03-13T05:50:55;93419.34;;;0.15;100.00
17873;BME280;36318;42.620;23.338;2023-03-13T05:53:23;93415.22;;;0.34;100.00
17873;BME280;36318;42.620;23.338;2023-03-13T05:55:50;93423.16;;;0.49;100.00
17873;BME280;36318;42.620;23.338;2023-03-13T05:58:16;93426.88;;;0.64;100.00
17873;BME280;36318;42.620;23.338;2023-03-13T06:00:43;93433.25;;;0.76;100.00
17873;BME280;36318;42.620;23.338;2023-03-13T06:03:09;93434.47;;;0.87;100.00
17873;BME280;36318;42.620;23.338;2023-03-13T06:05:36;93435.13;;;0.92;100.00
17873;BME280;36318;42.620;23.338;2023-03-13T06:08:03;93442.69;;;0.95;100.00
17873;BME280;36318;42.620;23.338;2023-03-13T06:10:31;93446.56;;;1.05;100.00
17873;BME280;36318;42.620;23.338;2023-03-13T06:12:57;93442.75;;;1.15;100.00
17873;BME280;36318;42.620;23.338;2023-03-13T06:15:24;93443.56;;;1.38;100.00
17873;BME280;36318;42.620;23.338;2023-03-13T06:17:53;93446.25;;;1.55;100.00
17873;BME280;36318;42.620;23.338;2023-03-13T06:20:20;93443.38;;;1.62;99.32
17873;BME280;36318;42.620;23.338;2023-03-13T06:22:47;93442.69;;;1.59;97.67
17873;BME280;36318;42.620;23.338;2023-03-13T06:25:14;93454.41;;;1.85;97.86
17873;BME280;36318;42.620;23.338;2023-03-13T06:27:42;93447.69;;;2.02;95.66
17873;BME280;36318;42.620;23.338;2023-03-13T06:30:09;93445.22;;;2.19;96.05
17873;BME280;36318;42.620;23.338;2023-03-13T06:32:36;93450.97;;;2.82;94.83
17873;BME280;36318;42.620;23.338;2023-03-13T06:35:02;93448.63;;;3.68;91.98
17873;BME280;36318;42.620;23.338;2023-03-13T06:37:29;93454.66;;;4.51;83.83
17873;BME280;36318;42.620;23.338;2023-03-13T06:39:56;93439.56;;;6.15;76.52
17873;BME280;36318;42.620;23.338;2023-03-13T06:42:22;93416.78;;;7.20;70.32
17873;BME280;36318;42.620;23.338;2023-03-13T06:44:51;93406.53;;;7.99;65.83
17873;BME280;36318;42.620;23.338;2023-03-13T06:47:17;93403.16;;;8.87;56.42
17873;BME280;36318;42.620;23.338;2023-03-13T06:49:44;93404.50;;;9.05;54.50
17873;BME280;36318;42.620;23.338;2023-03-13T06:52:10;93394.13;;;9.41;53.23
17873;BME280;36318;42.620;23.338;2023-03-13T06:54:37;93389.16;;;11.22;49.62
17873;BME280;36318;42.620;23.338;2023-03-13T06:57:03;93389.69;;;12.54;47.41
17873;BME280;36318;42.620;23.338;2023-03-13T06:59:30;93391.69;;;13.62;45.52
17873;BME280;36318;42.620;23.338;2023-03-13T07:01:58;93394.19;;;14.11;43.89
17873;BME280;36318;42.620;23.338;2023-03-13T07:04:24;93385.16;;;14.54;43.06
17873;BME280;36318;42.620;23.338;2023-03-13T07:06:51;93387.34;;;14.10;42.80
17873;BME280;36318;42.620;23.338;2023-03-13T07:09:17;93392.03;;;14.45;42.78
17873;BME280;36318;42.620;23.338;2023-03-13T07:11:45;93383.81;;;14.96;41.51
17873;BME280;36318;42.620;23.338;2023-03-13T07:14:11;93381.69;;;15.55;40.78
17873;BME280;36318;42.620;23.338;2023-03-13T07:16:38;93383.72;;;15.62;40.02
17873;BME280;36318;42.620;23.338;2023-03-13T07:19:06;93392.00;;;15.20;40.45
17873;BME280;36318;42.620;23.338;2023-03-13T07:21:32;93388.31;;;15.04;39.67
17873;BME280;36318;42.620;23.338;2023-03-13T07:23:59;93385.03;;;15.38;39.80
17873;BME280;36318;42.620;23.338;2023-03-13T07:26:25;93370.03;;;15.95;39.11
17873;BME280;36318;42.620;23.338;2023-03-13T07:28:52;93381.63;;;16.45;37.95
17873;BME280;36318;42.620;23.338;2023-03-13T07:31:19;93381.63;;;16.45;37.42
17873;BME280;36318;42.620;23.338;2023-03-13T07:33:47;93381.09;;;14.88;39.09
17873;BME280;36318;42.620;23.338;2023-03-13T07:36:18;93371.28;;;15.91;38.42
17873;BME280;36318;42.620;23.338;2023-03-13T07:38:46;93373.81;;;15.83;38.44
17873;BME280;36318;42.620;23.338;2023-03-13T07:41:14;93370.38;;;17.22;36.95
17873;BME280;36318;42.620;23.338;2023-03-13T07:43:41;93370.81;;;17.85;36.43
17873;BME280;36318;42.620;23.338;2023-03-13T07:46:09;93377.66;;;16.59;37.49
17873;BME280;36318;42.620;23.338;2023-03-13T07:48:36;93377.38;;;16.62;37.23
17873;BME280;36318;42.620;23.338;2023-03-13T07:51:03;93372.59;;;17.43;36.85
17873;BME280;36318;42.620;23.338;2023-03-13T07:53:32;93383.91;;;18.27;35.95
17873;BME280;36318;42.620;23.338;2023-03-13T07:55:59;93381.59;;;18.16;35.20
17873;BME280;36318;42.620;23.338;2023-03-13T07:58:27;93385.19;;;18.15;36.01
17873;BME280;36318;42.620;23.338;2023-03-13T08:00:54;93376.16;;;17.59;36.36
17873;BME280;36318;42.620;23.338;2023-03-13T08:03:21;93363.88;;;18.34;35.03
17873;BME280;36318;42.620;23.338;2023-03-13T08:05:55;93367.47;;;17.33;36.25
17873;BME280;36318;42.620;23.338;2023-03-13T08:08:22;93365.84;;;17.66;36.34
17873;BME280;36318;42.620;23.338;2023-03-13T08:10:50;93362.56;;;18.38;34.87
17873;BME280;36318;42.620;23.338;2023-03-13T08:13:17;93362.56;;;18.30;35.02
17873;BME280;36318;42.620;23.338;2023-03-13T08:15:43;93359.94;;;19.02;34.37
17873;BME280;36318;42.620;23.338;2023-03-13T08:18:10;93352.13;;;19.33;33.98
17873;BME280;36318;42.620;23.338;2023-03-13T08:20:36;93345.06;;;19.26;33.86
17873;BME280;36318;42.620;23.338;2023-03-13T08:23:03;93352.22;;;18.77;34.45
17873;BME280;36318;42.620;23.338;2023-03-13T08:25:30;93375.75;;;15.81;37.01
17873;BME280;36318;42.620;23.338;2023-03-13T08:27:58;93363.72;;;14.60;37.74
17873;BME280;36318;42.620;23.338;2023-03-13T08:30:24;93368.38;;;15.49;37.69
17873;BME280;36318;42.620;23.338;2023-03-13T08:32:51;93370.13;;;15.21;38.99
17873;BME280;36318;42.620;23.338;2023-03-13T08:35:18;93366.63;;;16.99;37.26
17873;BME280;36318;42.620;23.338;2023-03-13T08:37:44;93371.16;;;18.64;35.93
17873;BME280;36318;42.620;23.338;2023-03-13T08:40:11;93369.66;;;18.70;34.87
17873;BME280;36318;42.620;23.338;2023-03-13T08:42:38;93365.81;;;19.84;34.00
17873;BME280;36318;42.620;23.338;2023-03-13T08:45:07;93368.13;;;20.63;32.53
17873;BME280;36318;42.620;23.338;2023-03-13T08:47:33;93374.78;;;20.96;32.29
17873;BME280;36318;42.620;23.338;2023-03-13T08:50:02;93373.53;;;20.92;32.22
17873;BME280;36318;42.620;23.338;2023-03-13T08:52:29;93361.94;;;20.78;32.50
17873;BME280;36318;42.620;23.338;2023-03-13T08:54:55;93368.44;;;21.05;32.02
17873;BME280;36318;42.620;23.338;2023-03-13T08:57:22;93358.63;;;20.76;32.07
17873;BME280;36318;42.620;23.338;2023-03-13T08:59:49;93351.88;;;20.74;32.27
17873;BME280;36318;42.620;23.338;2023-03-13T09:02:17;93370.31;;;15.01;37.07
17873;BME280;36318;42.620;23.338;2023-03-13T09:04:45;93376.50;;;15.46;37.26
17873;BME280;36318;42.620;23.338;2023-03-13T09:07:13;93375.50;;;16.54;36.97
17873;BME280;36318;42.620;23.338;2023-03-13T09:09:39;93363.72;;;17.69;35.66
17873;BME280;36318;42.620;23.338;2023-03-13T09:12:06;93365.56;;;18.67;34.40
17873;BME280;36318;42.620;23.338;2023-03-13T09:14:33;93355.66;;;19.73;33.65
17873;BME280;36318;42.620;23.338;2023-03-13T09:16:59;93351.09;;;20.20;32.71
17873;BME280;36318;42.620;23.338;2023-03-13T09:19:27;93356.56;;;19.49;33.69
17873;BME280;36318;42.620;23.338;2023-03-13T09:21:54;93345.88;;;20.43;33.28
17873;BME280;36318;42.620;23.338;2023-03-13T09:24:20;93345.94;;;20.35;32.56
17873;BME280;36318;42.620;23.338;2023-03-13T09:26:47;93289.78;;;19.73;32.64
17873;BME280;36318;42.620;23.338;2023-03-13T09:29:14;93357.88;;;17.50;35.19
17873;BME280;36318;42.620;23.338;2023-03-13T09:31:40;93353.28;;;17.18;36.21
17873;BME280;36318;42.620;23.338;2023-03-13T09:34:07;93366.28;;;14.69;38.69
17873;BME280;36318;42.620;23.338;2023-03-13T09:36:35;93376.09;;;15.04;39.81
17873;BME280;36318;42.620;23.338;2023-03-13T09:39:01;93371.06;;;15.20;39.34
17873;BME280;36318;42.620;23.338;2023-03-13T09:41:30;93378.84;;;14.37;40.25
17873;BME280;36318;42.620;23.338;2023-03-13T09:43:59;93383.91;;;14.00;40.24
17873;BME280;36318;42.620;23.338;2023-03-13T09:46:30;93377.38;;;12.86;41.68
17873;BME280;36318;42.620;23.338;2023-03-13T09:48:59;93382.84;;;12.83;42.61
17873;BME280;36318;42.620;23.338;2023-03-13T09:51:28;93381.66;;;12.05;44.15
17873;BME280;36318;42.620;23.338;2023-03-13T09:53:59;93379.38;;;12.73;43.61
17873;BME280;36318;42.620;23.338;2023-03-13T09:56:28;93376.75;;;13.34;42.51
17873;BME280;36318;42.620;23.338;2023-03-13T09:58:56;93371.88;;;13.10;42.96
17873;BME280;36318;42.620;23.338;2023-03-13T10:01:25;93373.41;;;13.62;42.38
17873;BME280;36318;42.620;23.338;2023-03-13T10:04:06;93364.66;;;13.92;41.63
17873;BME280;36318;42.620;23.338;2023-03-13T10:06:38;93361.84;;;13.45;42.53
17873;BME280;36318;42.620;23.338;2023-03-13T10:09:11;93364.19;;;13.08;42.49
17873;BME280;36318;42.620;23.338;2023-03-13T10:11:42;93369.84;;;13.63;42.50
17873;BME280;36318;42.620;23.338;2023-03-13T10:14:10;93361.88;;;13.74;41.79
17873;BME280;36318;42.620;23.338;2023-03-13T10:16:40;93356.22;;;12.80;42.55
17873;BME280;36318;42.620;23.338;2023-03-13T10:19:10;93356.81;;;11.58;44.75
17873;BME280;36318;42.620;23.338;2023-03-13T10:21:37;93350.13;;;11.87;45.60
17873;BME280;36318;42.620;23.338;2023-03-13T10:24:11;93346.75;;;12.28;44.74
17873;BME280;36318;42.620;23.338;2023-03-13T10:26:40;93342.47;;;12.06;45.46
17873;BME280;36318;42.620;23.338;2023-03-13T10:29:15;93329.47;;;12.47;44.43
17873;BME280;36318;42.620;23.338;2023-03-13T10:31:44;93328.56;;;12.58;44.49
17873;BME280;36318;42.620;23.338;2023-03-13T10:34:13;93319.97;;;12.37;44.36
17873;BME280;36318;42.620;23.338;2023-03-13T10:36:40;93318.84;;;12.90;44.52
17873;BME280;36318;42.620;23.338;2023-03-13T10:39:07;93313.44;;;12.52;43.47
17873;BME280;36318;42.620;23.338;2023-03-13T10:41:34;93325.78;;;12.09;44.83
17873;BME280;36318;42.620;23.338;2023-03-13T10:44:04;93318.19;;;12.17;44.79
17873;BME280;36318;42.620;23.338;2023-03-13T10:46:33;93311.78;;;12.21;45.04
17873;BME280;36318;42.620;23.338;2023-03-13T10:49:00;93306.00;;;12.68;44.70
17873;BME280;36318;42.620;23.338;2023-03-13T10:51:29;93301.34;;;13.02;44.05
17873;BME280;36318;42.620;23.338;2023-03-13T10:53:57;93304.03;;;13.31;43.09
17873;BME280;36318;42.620;23.338;2023-03-13T10:56:24;93299.41;;;12.94;43.38
17873;BME280;36318;42.620;23.338;2023-03-13T10:58:54;93298.81;;;13.31;44.67
17873;BME280;36318;42.620;23.338;2023-03-13T11:01:22;93294.47;;;13.41;44.04
17873;BME280;36318;42.620;23.338;2023-03-13T11:03:50;93295.53;;;13.38;43.50
17873;BME280;36318;42.620;23.338;2023-03-13T11:06:27;93286.72;;;12.80;44.10
17873;BME280;36318;42.620;23.338;2023-03-13T11:08:58;93291.78;;;12.72;43.84
17873;BME280;36318;42.620;23.338;2023-03-13T11:11:24;93289.22;;;13.31;44.47
17873;BME280;36318;42.620;23.338;2023-03-13T11:13:55;93281.16;;;13.63;43.45
17873;BME280;36318;42.620;23.338;2023-03-13T11:16:34;93271.84;;;13.01;43.40
17873;BME280;36318;42.620;23.338;2023-03-13T11:19:09;93274.03;;;13.46;43.76
17873;BME280;36318;42.620;23.338;2023-03-13T11:21:44;93272.09;;;13.57;43.34
17873;BME280;36318;42.620;23.338;2023-03-13T11:24:16;93263.72;;;13.83;43.50
17873;BME280;36318;42.620;23.338;2023-03-13T11:26:47;93269.56;;;13.08;43.30
17873;BME280;36318;42.620;23.338;2023-03-13T11:29:20;93260.47;;;13.02;43.72
17873;BME280;36318;42.620;23.338;2023-03-13T11:31:53;93261.66;;;13.48;42.92
17873;BME280;36318;42.620;23.338;2023-03-13T11:34:22;93263.56;;;13.84;43.17
17873;BME280;36318;42.620;23.338;2023-03-13T11:36:52;93255.75;;;13.55;42.45
17873;BME280;36318;42.620;23.338;2023-03-13T11:39:30;93251.09;;;13.59;43.09
17873;BME280;36318;42.620;23.338;2023-03-13T11:42:03;93251.47;;;13.93;43.33
17873;BME280;36318;42.620;23.338;2023-03-13T11:44:36;93238.28;;;14.04;43.01
17873;BME280;36318;42.620;23.338;2023-03-13T11:47:20;93229.75;;;14.11;42.55
17873;BME280;36318;42.620;23.338;2023-03-13T11:49:57;93221.34;;;14.36;42.82
17873;BME280;36318;42.620;23.338;2023-03-13T11:52:30;93215.00;;;14.39;42.62
17873;BME280;36318;42.620;23.338;2023-03-13T11:55:02;93208.94;;;14.38;42.42
17873;BME280;36318;42.620;23.338;2023-03-13T11:57:39;93209.09;;;14.37;42.56
17873;BME280;36318;42.620;23.338;2023-03-13T12:00:14;93211.81;;;14.45;43.25
17873;BME280;36318;42.620;23.338;2023-03-13T12:02:45;93217.91;;;14.17;42.55
17873;BME280;36318;42.620;23.338;2023-03-13T12:05:16;93206.16;;;13.84;42.56
17873;BME280;36318;42.620;23.338;2023-03-13T12:07:45;93210.78;;;14.09;43.61
17873;BME280;36318;42.620;23.338;2023-03-13T12:10:14;93199.59;;;14.46;43.01
17873;BME280;36318;42.620;23.338;2023-03-13T12:12:42;93201.13;;;14.38;42.44
17873;BME280;36318;42.620;23.338;2023-03-13T12:15:16;93196.22;;;14.16;42.41
17873;BME280;36318;42.620;23.338;2023-03-13T12:17:47;93192.03;;;13.77;42.40
17873;BME280;36318;42.620;23.338;2023-03-13T12:20:17;93191.31;;;14.04;42.13
17873;BME280;36318;42.620;23.338;2023-03-13T12:22:47;93186.13;;;13.94;41.91
17873;BME280;36318;42.620;23.338;2023-03-13T12:25:20;93185.75;;;14.26;42.39
17873;BME280;36318;42.620;23.338;2023-03-13T12:27:49;93177.91;;;14.35;43.84
17873;BME280;36318;42.620;23.338;2023-03-13T12:30:19;93181.72;;;14.41;42.77
17873;BME280;36318;42.620;23.338;2023-03-13T12:32:51;93186.16;;;13.17;43.09
17873;BME280;36318;42.620;23.338;2023-03-13T12:35:23;93184.00;;;13.13;43.32
17873;BME280;36318;42.620;23.338;2023-03-13T12:37:54;93185.63;;;13.43;43.60
17873;BME280;36318;42.620;23.338;2023-03-13T12:40:24;93176.28;;;13.59;42.64
17873;BME280;36318;42.620;23.338;2023-03-13T12:42:54;93176.00;;;13.53;42.81
17873;BME280;36318;42.620;23.338;2023-03-13T12:45:21;93173.00;;;13.48;42.83
17873;BME280;36318;42.620;23.338;2023-03-13T12:48:04;93170.84;;;13.99;42.91
17873;BME280;36318;42.620;23.338;2023-03-13T12:50:36;93182.94;;;14.47;42.16
17873;BME280;36318;42.620;23.338;2023-03-13T12:55:59;93173.38;;;14.92;41.37